createdAt,value
2023-02-17T00:00:01.455Z,31.50
2023-02-17T00:03:03.583Z,28.90
2023-02-17T00:06:10.971Z,29.27
2023-02-17T00:09:12.972Z,27.73
2023-02-17T00:12:15.404Z,29.30
2023-02-17T00:15:19.773Z,29.83
2023-02-17T00:18:23.133Z,30.10
2023-02-17T00:21:27.885Z,30.30
2023-02-17T00:24:32.024Z,29.13
2023-02-17T00:27:34.029Z,30.00
2023-02-17T00:30:37.830Z,29.10
2023-02-17T00:33:39.817Z,28.47
2023-02-17T00:36:42.098Z,27.43
2023-02-17T00:39:46.828Z,27.20
2023-02-17T00:42:49.217Z,27.13
2023-02-17T00:45:51.671Z,29.47
2023-02-17T00:48:54.769Z,28.60
2023-02-17T00:52:01.060Z,27.90
2023-02-17T00:55:04.066Z,27.27
2023-02-17T00:58:06.099Z,27.70
2023-02-17T01:01:10.225Z,27.57
2023-02-17T01:04:13.032Z,27.77
2023-02-17T01:07:15.311Z,27.33
2023-02-17T01:10:17.578Z,27.63
2023-02-17T01:13:20.060Z,26.83
2023-02-17T01:16:24.034Z,26.27
2023-02-17T01:19:26.363Z,27.43
2023-02-17T01:22:28.473Z,27.57
2023-02-17T01:25:31.226Z,27.37
2023-02-17T01:28:33.333Z,28.27
2023-02-17T01:31:35.934Z,27.20
2023-02-17T01:34:38.352Z,28.23
2023-02-17T01:37:40.927Z,27.90
2023-02-17T01:40:49.859Z,26.57
2023-02-17T01:44:10.867Z,27.83
2023-02-17T01:47:13.171Z,27.47
2023-02-17T01:50:16.567Z,28.10
2023-02-17T01:53:26.022Z,26.87
2023-02-17T01:56:29.072Z,26.07
2023-02-17T01:59:32.045Z,26.47
2023-02-17T02:02:34.653Z,26.50
2023-02-17T02:05:38.653Z,26.73
2023-02-17T02:08:59.496Z,26.87
2023-02-17T02:12:02.340Z,26.23
2023-02-17T02:15:07.731Z,25.53
2023-02-17T02:18:12.528Z,25.23
2023-02-17T02:21:35.039Z,25.97
2023-02-17T02:24:40.111Z,24.70
2023-02-17T02:27:59.224Z,25.37
2023-02-17T02:31:09.849Z,24.67
2023-02-17T02:34:42.960Z,24.97
2023-02-17T02:37:56.282Z,24.50
2023-02-17T02:41:06.824Z,24.57
2023-02-17T02:44:12.711Z,25.43
2023-02-17T02:47:48.474Z,25.47
2023-02-17T02:51:05.638Z,25.67
2023-02-17T02:54:33.038Z,25.57
2023-02-17T02:57:55.665Z,24.07
2023-02-17T03:01:14.294Z,23.70
2023-02-17T03:04:36.445Z,22.77
2023-02-17T03:07:46.650Z,22.47
2023-02-17T03:10:54.270Z,23.33
2023-02-17T03:14:04.578Z,22.37
2023-02-17T03:17:06.549Z,23.60
2023-02-17T03:20:09.921Z,22.70
2023-02-17T03:23:11.974Z,23.03
2023-02-17T03:26:15.461Z,22.10
2023-02-17T03:29:17.493Z,23.67
2023-02-17T03:32:20.934Z,22.80
2023-02-17T03:35:22.982Z,22.60
2023-02-17T03:38:25.234Z,21.20
2023-02-17T03:41:27.538Z,21.00
2023-02-17T03:44:30.142Z,22.33
2023-02-17T03:47:32.441Z,22.47
2023-02-17T03:50:34.730Z,22.17
2023-02-17T03:53:36.727Z,21.17
2023-02-17T03:56:39.151Z,22.77
2023-02-17T03:59:41.154Z,23.40
2023-02-17T04:02:44.267Z,21.23
2023-02-17T04:05:46.450Z,23.40
2023-02-17T04:08:48.760Z,22.83
2023-02-17T04:11:50.857Z,24.30
2023-02-17T04:14:53.113Z,23.83
2023-02-17T04:17:55.344Z,22.53
2023-02-17T04:20:57.956Z,22.70
2023-02-17T04:24:04.180Z,23.47
2023-02-17T04:27:06.489Z,23.67
2023-02-17T04:30:11.988Z,24.90
2023-02-17T04:33:15.084Z,29.73
2023-02-17T04:36:17.128Z,33.90
2023-02-17T04:39:19.476Z,31.97
2023-02-17T04:42:21.539Z,28.53
2023-02-17T04:45:24.594Z,23.63
2023-02-17T04:48:26.985Z,22.87
2023-02-17T04:51:29.390Z,22.63
2023-02-17T04:54:31.405Z,23.07
2023-02-17T04:57:33.828Z,23.50
2023-02-17T05:00:36.743Z,24.17
2023-02-17T05:03:39.038Z,23.77
2023-02-17T05:06:41.008Z,24.20
2023-02-17T05:09:43.386Z,23.73
2023-02-17T05:12:45.760Z,23.83
2023-02-17T05:15:48.203Z,24.47
2023-02-17T05:18:50.268Z,24.67
2023-02-17T05:21:52.542Z,23.50
2023-02-17T05:24:54.680Z,24.13
2023-02-17T05:27:57.442Z,26.97
2023-02-17T05:31:01.501Z,24.20
2023-02-17T05:34:04.172Z,24.07
2023-02-17T05:37:06.159Z,25.33
2023-02-17T05:40:09.009Z,23.63
2023-02-17T05:43:11.034Z,24.67
2023-02-17T05:46:14.059Z,25.10
2023-02-17T05:49:16.135Z,25.50
2023-02-17T05:52:18.736Z,32.07
2023-02-17T05:55:22.632Z,34.37
2023-02-17T05:58:25.063Z,25.77
2023-02-17T06:01:27.954Z,24.40
2023-02-17T06:04:30.338Z,29.20
2023-02-17T06:07:32.346Z,30.40
2023-02-17T06:10:34.689Z,25.83
2023-02-17T06:13:36.924Z,24.87
2023-02-17T06:16:39.252Z,26.67
2023-02-17T06:19:41.259Z,26.23
2023-02-17T06:22:43.930Z,25.27
2023-02-17T06:25:46.274Z,30.30
2023-02-17T06:28:48.653Z,35.73
2023-02-17T06:31:50.815Z,33.10
2023-02-17T06:34:53.200Z,30.67
2023-02-17T06:37:55.221Z,31.70
2023-02-17T06:40:57.525Z,27.30
2023-02-17T06:43:59.502Z,28.37
2023-02-17T06:47:01.877Z,25.87
2023-02-17T06:50:04.384Z,27.50
2023-02-17T06:53:07.986Z,28.03
2023-02-17T06:56:09.999Z,26.50
2023-02-17T06:59:18.039Z,27.80
2023-02-17T07:02:20.511Z,27.17
2023-02-17T07:05:22.991Z,25.07
2023-02-17T07:08:25.582Z,25.43
2023-02-17T07:11:31.317Z,25.73
2023-02-17T07:14:34.952Z,24.37
2023-02-17T07:17:37.286Z,29.57
2023-02-17T07:20:39.483Z,23.47
2023-02-17T07:23:42.465Z,22.83
2023-02-17T07:26:44.529Z,24.50
2023-02-17T07:29:46.848Z,21.67
2023-02-17T07:32:48.868Z,23.20
2023-02-17T07:35:54.377Z,27.97
2023-02-17T07:38:58.160Z,23.77
2023-02-17T07:42:01.133Z,22.27
2023-02-17T07:45:03.507Z,23.17
2023-02-17T07:48:05.906Z,24.00
2023-02-17T07:51:13.446Z,22.40
2023-02-17T07:54:15.943Z,22.37
2023-02-17T07:57:18.043Z,25.13
2023-02-17T08:00:20.937Z,23.43
2023-02-17T08:03:22.987Z,23.03
2023-02-17T08:06:26.173Z,23.00
2023-02-17T08:09:46.791Z,21.67
2023-02-17T08:13:09.338Z,22.53
2023-02-17T08:16:11.372Z,21.90
2023-02-17T08:19:13.738Z,23.77
2023-02-17T08:22:17.288Z,25.13
2023-02-17T08:25:22.023Z,23.13
2023-02-17T08:28:24.093Z,25.17
2023-02-17T08:31:31.883Z,23.90
2023-02-17T08:34:34.173Z,22.37
2023-02-17T08:37:36.576Z,22.20
2023-02-17T08:40:40.035Z,23.27
2023-02-17T08:43:43.080Z,26.07
2023-02-17T08:46:48.233Z,20.77
2023-02-17T08:49:50.701Z,22.73
2023-02-17T08:52:52.766Z,21.53
2023-02-17T08:55:55.342Z,21.57
2023-02-17T08:58:57.464Z,21.70
2023-02-17T09:02:00.755Z,21.73
2023-02-17T09:05:03.700Z,19.47
2023-02-17T09:08:06.130Z,20.67
2023-02-17T09:11:21.335Z,19.40
2023-02-17T09:14:38.803Z,20.83
2023-02-17T09:17:41.592Z,21.30
2023-02-17T09:20:43.901Z,19.83
2023-02-17T09:23:46.465Z,19.50
2023-02-17T09:26:48.815Z,19.10
2023-02-17T09:29:50.819Z,19.87
2023-02-17T09:32:53.143Z,19.53
2023-02-17T09:35:56.159Z,20.47
2023-02-17T09:38:59.228Z,17.67
2023-02-17T09:42:01.684Z,17.17
2023-02-17T09:45:26.148Z,17.23
2023-02-17T09:48:33.008Z,16.17
2023-02-17T09:51:43.035Z,16.53
2023-02-17T09:55:13.688Z,15.10
2023-02-17T09:58:37.332Z,13.73
2023-02-17T10:01:42.029Z,14.47
2023-02-17T10:04:49.870Z,14.80
2023-02-17T10:08:00.527Z,13.97
2023-02-17T10:11:38.766Z,13.77
2023-02-17T10:14:56.732Z,13.20
2023-02-17T10:18:17.630Z,13.43
2023-02-17T10:21:32.852Z,13.13
2023-02-17T10:24:35.741Z,13.03
2023-02-17T10:27:46.196Z,14.03
2023-02-17T10:31:11.655Z,13.37
2023-02-17T10:34:31.984Z,12.50
2023-02-17T10:37:50.674Z,12.93
2023-02-17T10:40:55.506Z,12.90
2023-02-17T10:43:58.562Z,12.67
2023-02-17T10:47:00.619Z,11.93
2023-02-17T10:50:06.235Z,11.43
2023-02-17T10:53:21.394Z,12.00
2023-02-17T10:56:42.410Z,12.70
2023-02-17T10:59:46.238Z,12.27
2023-02-17T11:02:52.261Z,12.67
2023-02-17T11:06:00.375Z,11.20
2023-02-17T11:09:12.114Z,10.77
2023-02-17T11:12:28.478Z,11.27
2023-02-17T11:15:45.347Z,11.10
2023-02-17T11:18:49.774Z,12.10
2023-02-17T11:21:54.846Z,11.27
2023-02-17T11:25:03.811Z,11.60
2023-02-17T11:28:12.643Z,11.07
2023-02-17T11:31:30.954Z,10.83
2023-02-17T11:34:41.326Z,11.77
2023-02-17T11:37:43.902Z,10.73
2023-02-17T11:41:02.677Z,11.57
2023-02-17T11:44:06.145Z,11.27
2023-02-17T11:47:23.773Z,10.87
2023-02-17T11:50:52.708Z,11.10
2023-02-17T11:54:14.897Z,12.33
2023-02-17T11:57:40.980Z,10.60
2023-02-17T12:00:52.522Z,11.87
2023-02-17T12:04:21.466Z,10.53
2023-02-17T12:07:57.779Z,13.13
2023-02-17T12:11:17.718Z,11.57
2023-02-17T12:14:41.405Z,11.67
2023-02-17T12:18:01.460Z,12.30
2023-02-17T12:21:09.541Z,12.80
2023-02-17T12:24:42.785Z,12.20
2023-02-17T12:27:54.494Z,12.07
2023-02-17T12:31:11.396Z,12.63
2023-02-17T12:34:31.888Z,12.37
2023-02-17T12:37:48.411Z,11.43
2023-02-17T12:41:17.548Z,11.73
2023-02-17T12:44:26.335Z,12.50
2023-02-17T12:47:42.808Z,14.03
2023-02-17T12:51:08.216Z,14.10
2023-02-17T12:54:49.463Z,13.47
2023-02-17T12:57:59.740Z,12.37
2023-02-17T13:01:07.141Z,13.00
2023-02-17T13:04:17.050Z,12.43
2023-02-17T13:07:28.976Z,12.63
2023-02-17T13:10:35.247Z,12.10
2023-02-17T13:13:38.888Z,16.73
2023-02-17T13:16:48.812Z,10.63
2023-02-17T13:20:04.070Z,11.57
2023-02-17T13:23:11.021Z,11.57
2023-02-17T13:26:24.543Z,11.60
2023-02-17T13:29:34.559Z,9.63
2023-02-17T13:32:38.563Z,10.67
2023-02-17T13:35:43.724Z,9.73
2023-02-17T13:39:01.288Z,10.77
2023-02-17T13:42:04.677Z,10.37
2023-02-17T13:45:31.494Z,11.33
2023-02-17T13:48:38.606Z,10.50
2023-02-17T13:51:40.901Z,11.60
2023-02-17T13:54:56.439Z,9.30
2023-02-17T13:58:00.811Z,10.70
2023-02-17T14:01:09.529Z,8.83
2023-02-17T14:04:25.852Z,9.50
2023-02-17T14:07:37.602Z,10.23
2023-02-17T14:10:40.299Z,9.17
2023-02-17T14:13:45.938Z,9.17
2023-02-17T14:16:58.901Z,9.87
2023-02-17T14:20:01.126Z,9.53
2023-02-17T14:23:12.727Z,8.80
2023-02-17T14:26:36.902Z,8.27
2023-02-17T14:29:41.709Z,8.43
2023-02-17T14:32:46.925Z,8.00
2023-02-17T14:36:01.617Z,8.87
2023-02-17T14:39:09.504Z,8.97
2023-02-17T14:42:11.777Z,9.10
2023-02-17T14:45:15.338Z,8.27
2023-02-17T14:48:18.144Z,8.60
2023-02-17T14:51:24.020Z,7.77
2023-02-17T14:54:30.509Z,8.57
2023-02-17T14:57:33.750Z,7.77
2023-02-17T15:00:38.135Z,9.00
2023-02-17T15:06:56.663Z,11.20
2023-02-17T15:10:14.480Z,10.70
2023-02-17T15:13:21.888Z,9.23
2023-02-17T15:16:24.205Z,11.90
2023-02-17T15:19:26.603Z,10.10
2023-02-17T15:22:28.702Z,9.70
2023-02-17T15:25:35.191Z,9.97
2023-02-17T15:28:37.194Z,10.43
2023-02-17T15:31:39.681Z,10.70
2023-02-17T15:34:41.908Z,9.17
2023-02-17T15:37:44.799Z,9.10
2023-02-17T15:40:47.018Z,9.50
2023-02-17T15:43:51.152Z,10.40
2023-02-17T15:46:55.095Z,9.33
2023-02-17T15:49:57.647Z,9.77
2023-02-17T15:52:59.772Z,8.97
2023-02-17T15:56:02.433Z,10.67
2023-02-17T15:59:19.356Z,9.73
2023-02-17T16:02:24.312Z,11.50
2023-02-17T16:05:28.435Z,14.63
2023-02-17T16:08:30.741Z,11.53
2023-02-17T16:11:33.994Z,11.97
2023-02-17T16:14:38.160Z,10.60
2023-02-17T16:17:40.240Z,10.20
2023-02-17T16:20:42.640Z,11.50
2023-02-17T16:23:45.048Z,11.63
2023-02-17T16:26:48.035Z,11.47
2023-02-17T16:29:50.228Z,11.93
2023-02-17T16:32:52.552Z,11.23
2023-02-17T16:35:54.766Z,9.30
2023-02-17T16:38:57.309Z,8.97
2023-02-17T16:41:59.300Z,8.57
2023-02-17T16:45:01.674Z,9.30
2023-02-17T16:48:07.665Z,10.07
2023-02-17T16:51:09.950Z,11.17
2023-02-17T16:54:12.232Z,10.97
2023-02-17T16:57:20.374Z,10.93
2023-02-17T17:00:27.689Z,12.57
2023-02-17T17:03:29.992Z,10.67
2023-02-17T17:06:33.090Z,10.03
2023-02-17T17:09:35.369Z,10.80
2023-02-17T17:12:37.384Z,9.53
2023-02-17T17:15:43.036Z,10.00
2023-02-17T17:18:45.201Z,7.53
2023-02-17T17:21:48.103Z,43.80
2023-02-17T17:24:50.129Z,8.10
2023-02-17T17:27:52.952Z,7.57
2023-02-17T17:30:55.130Z,7.23
2023-02-17T17:33:57.526Z,6.77
2023-02-17T17:36:59.698Z,6.70
2023-02-17T17:40:02.065Z,6.30
2023-02-17T17:43:04.114Z,6.47
2023-02-17T17:46:30.625Z,5.80
2023-02-17T17:49:32.651Z,5.70
2023-02-17T17:52:35.115Z,6.90
2023-02-17T17:55:37.423Z,5.97
2023-02-17T17:58:39.682Z,5.03
2023-02-17T18:01:44.484Z,4.50
2023-02-17T18:04:47.869Z,4.60
2023-02-17T18:07:51.114Z,4.70
2023-02-17T18:10:53.575Z,4.90
2023-02-17T18:14:03.388Z,4.63
2023-02-17T18:17:06.502Z,4.60
2023-02-17T18:20:10.980Z,4.53
2023-02-17T18:23:13.416Z,4.63
2023-02-17T18:26:16.873Z,4.73
2023-02-17T18:29:19.753Z,4.30
2023-02-17T18:32:22.144Z,4.40
2023-02-17T18:35:24.622Z,4.60
2023-02-17T18:38:26.815Z,4.37
2023-02-17T18:41:34.891Z,4.00
2023-02-17T18:44:36.841Z,4.43
2023-02-17T18:47:39.127Z,4.40
2023-02-17T18:50:41.329Z,4.10
2023-02-17T18:53:43.609Z,3.97
2023-02-17T18:56:45.590Z,4.23
2023-02-17T18:59:48.038Z,3.90
2023-02-17T19:02:50.095Z,4.07
2023-02-17T19:05:52.478Z,3.93
2023-02-17T19:08:55.599Z,4.23
2023-02-17T19:11:57.944Z,3.63
2023-02-17T19:14:59.974Z,4.00
2023-02-17T19:18:02.313Z,4.07
2023-02-17T19:21:07.975Z,4.03
2023-02-17T19:24:14.573Z,3.70
2023-02-17T19:27:16.684Z,4.13
2023-02-17T19:30:19.137Z,3.80
2023-02-17T19:33:21.327Z,4.03
2023-02-17T19:36:23.695Z,4.73
2023-02-17T19:39:26.088Z,4.10
2023-02-17T19:42:28.393Z,4.47
2023-02-17T19:45:30.552Z,4.40
2023-02-17T19:48:34.377Z,4.10
2023-02-17T19:51:36.397Z,4.17
2023-02-17T19:54:38.649Z,7.10
2023-02-17T19:57:40.960Z,3.70
2023-02-17T20:00:43.562Z,1.83
2023-02-17T20:03:46.070Z,2.47
2023-02-17T20:06:48.368Z,2.83
2023-02-17T20:09:50.439Z,2.17
2023-02-17T20:12:52.713Z,2.13
2023-02-17T20:16:00.281Z,1.93
2023-02-17T20:19:03.888Z,1.70
2023-02-17T20:22:07.573Z,1.67
2023-02-17T20:25:09.970Z,1.63
2023-02-17T20:28:12.368Z,1.30
2023-02-17T20:31:14.974Z,1.40
2023-02-17T20:34:39.343Z,1.37
2023-02-17T20:37:41.701Z,1.30
2023-02-17T20:40:43.918Z,1.30
2023-02-17T20:43:46.349Z,2.03
2023-02-17T20:46:49.014Z,1.50
2023-02-17T20:49:51.468Z,1.30
2023-02-17T20:52:53.509Z,1.43
2023-02-17T20:55:55.844Z,1.33
2023-02-17T20:58:57.988Z,1.50
2023-02-17T21:02:00.293Z,1.53
2023-02-17T21:05:02.340Z,1.40
2023-02-17T21:08:04.791Z,1.67
2023-02-17T21:11:06.818Z,1.43
2023-02-17T21:14:09.500Z,2.40
2023-02-17T21:17:13.601Z,1.63
2023-02-17T21:20:19.138Z,1.70
2023-02-17T21:23:22.600Z,1.50
2023-02-17T21:26:25.542Z,1.30
2023-02-17T21:29:27.599Z,1.27
2023-02-17T21:32:29.906Z,1.20
2023-02-17T21:35:31.924Z,1.50
2023-02-17T21:38:34.225Z,1.20
2023-02-17T21:41:36.247Z,1.60
2023-02-17T21:44:53.768Z,1.43
2023-02-17T21:47:55.722Z,1.60
2023-02-17T21:51:05.963Z,1.60
2023-02-17T21:54:09.610Z,1.60
2023-02-17T21:57:11.982Z,1.73
2023-02-17T22:00:14.946Z,1.60
2023-02-17T22:03:17.702Z,1.40
2023-02-17T22:06:30.613Z,1.23
2023-02-17T22:09:33.640Z,1.40
2023-02-17T22:12:37.235Z,1.43
2023-02-17T22:15:39.613Z,1.27
2023-02-17T22:18:41.875Z,1.53
2023-02-17T22:21:45.221Z,1.70
2023-02-17T22:24:47.196Z,2.00
2023-02-17T22:27:49.441Z,1.70
2023-02-17T22:30:53.842Z,1.70
2023-02-17T22:33:59.710Z,1.90
2023-02-17T22:37:01.844Z,1.53
2023-02-17T22:40:06.774Z,1.50
2023-02-17T22:43:08.933Z,1.73
2023-02-17T22:46:12.132Z,1.60
2023-02-17T22:49:14.352Z,1.53
2023-02-17T22:52:16.582Z,1.33
2023-02-17T22:55:24.868Z,1.67
2023-02-17T22:58:27.686Z,1.90
2023-02-17T23:01:32.069Z,2.10
2023-02-17T23:04:34.416Z,1.73
2023-02-17T23:07:36.505Z,2.47
2023-02-17T23:10:43.340Z,1.87
2023-02-17T23:13:45.557Z,1.80
2023-02-17T23:16:47.965Z,1.60
2023-02-17T23:19:50.024Z,1.60
2023-02-17T23:22:52.387Z,2.00
2023-02-17T23:25:55.777Z,2.23
2023-02-17T23:28:58.010Z,1.77
2023-02-17T23:32:00.522Z,2.20
2023-02-17T23:35:04.189Z,2.13
2023-02-17T23:38:06.152Z,1.83
2023-02-17T23:41:08.428Z,1.90
2023-02-17T23:44:12.299Z,1.73
2023-02-17T23:47:14.635Z,1.97
2023-02-17T23:50:17.239Z,1.63
2023-02-17T23:53:19.572Z,1.70
2023-02-17T23:56:23.784Z,2.10
2023-02-17T23:59:26.112Z,1.90
